createdAt,value
2023-05-14T00:00:38.886Z,5.41
2023-05-14T00:11:01.290Z,5.29
2023-05-14T00:21:03.700Z,5.20
2023-05-14T00:31:06.111Z,5.24
2023-05-14T00:41:08.405Z,5.09
2023-05-14T00:51:11.574Z,4.87
2023-05-14T01:01:15.504Z,4.71
2023-05-14T01:11:22.640Z,4.61
2023-05-14T01:21:38.076Z,4.44
2023-05-14T01:31:44.358Z,4.22
2023-05-14T01:41:47.549Z,4.08
2023-05-14T01:51:49.906Z,3.97
2023-05-14T02:01:52.307Z,4.23
2023-05-14T02:11:54.587Z,4.78
2023-05-14T02:21:56.931Z,5.18
2023-05-14T02:31:59.258Z,5.33
2023-05-14T02:42:01.543Z,5.32
2023-05-14T05:50:09.979Z,11.26
2023-05-14T06:00:15.820Z,12.05
2023-05-14T06:10:18.154Z,12.54
2023-05-14T06:20:20.710Z,12.99
2023-05-14T06:30:23.505Z,13.43
2023-05-14T06:40:26.170Z,13.80
2023-05-14T06:50:28.678Z,14.54
2023-05-14T07:00:30.977Z,15.24
2023-05-14T07:10:33.566Z,16.36
2023-05-14T07:20:35.947Z,16.32
2023-05-14T07:30:38.259Z,16.12
2023-05-14T07:40:40.570Z,16.41
2023-05-14T07:50:42.835Z,16.54
2023-05-14T08:00:45.137Z,17.00
2023-05-14T08:10:47.434Z,18.24
2023-05-14T08:20:49.816Z,19.03
2023-05-14T08:30:52.295Z,19.70
2023-05-14T08:40:58.200Z,19.68
2023-05-14T08:51:01.115Z,20.18
2023-05-14T09:01:04.069Z,20.77
2023-05-14T09:11:07.035Z,20.74
2023-05-14T09:21:09.329Z,20.17
2023-05-14T09:31:11.652Z,20.17
2023-05-14T09:41:13.930Z,19.53
2023-05-14T09:51:17.926Z,18.48
2023-05-14T10:01:21.305Z,17.93
2023-05-14T10:11:31.140Z,17.51
2023-05-14T10:21:35.931Z,17.75
2023-05-14T10:31:55.632Z,18.56
2023-05-14T10:41:57.991Z,19.19
2023-05-14T10:52:01.887Z,19.19
2023-05-14T11:02:05.812Z,18.73
2023-05-14T11:12:08.986Z,18.31
2023-05-14T11:22:13.887Z,18.16
2023-05-14T11:32:17.387Z,18.02
2023-05-14T11:42:21.084Z,17.69
2023-05-14T11:52:23.461Z,17.63
2023-05-14T12:02:29.546Z,17.36
2023-05-14T12:12:37.448Z,17.01
2023-05-14T12:22:42.585Z,16.86
2023-05-14T12:32:44.965Z,17.07
2023-05-14T12:42:47.424Z,17.14
2023-05-14T12:52:49.726Z,17.10
2023-05-14T13:02:52.331Z,17.05
2023-05-14T13:12:54.733Z,17.16
2023-05-14T13:22:57.612Z,17.27
2023-05-14T13:33:00.138Z,17.22
2023-05-14T13:43:03.288Z,17.28
2023-05-14T13:53:05.781Z,17.16
2023-05-14T14:03:08.450Z,16.87
2023-05-14T14:13:11.269Z,16.58
2023-05-14T14:23:13.561Z,16.15
2023-05-14T14:33:15.988Z,15.86
2023-05-14T14:43:18.356Z,15.76
2023-05-14T14:53:21.934Z,15.62
2023-05-14T15:03:26.017Z,15.37
2023-05-14T15:13:29.512Z,15.14
2023-05-14T15:23:31.893Z,14.95
2023-05-14T15:33:34.257Z,14.85
2023-05-14T15:43:36.590Z,14.91
2023-05-14T15:53:38.885Z,14.92
2023-05-14T16:03:41.256Z,14.90
2023-05-14T16:13:43.727Z,14.96
2023-05-14T16:23:46.482Z,14.83
2023-05-14T16:33:48.740Z,14.78
2023-05-14T16:43:51.963Z,14.64
2023-05-14T16:53:55.596Z,14.49
2023-05-14T17:03:58.029Z,14.30
2023-05-14T17:14:00.361Z,14.13
2023-05-14T17:24:02.074Z,13.86
2023-05-14T17:34:04.424Z,13.56
2023-05-14T17:44:06.692Z,13.25
2023-05-14T17:54:09.222Z,12.89
2023-05-14T18:04:11.590Z,12.58
2023-05-14T18:14:14.029Z,12.24
2023-05-14T18:24:16.459Z,12.03
2023-05-14T18:34:18.750Z,11.68
2023-05-14T18:44:21.130Z,11.39
2023-05-14T18:54:23.419Z,11.15
2023-05-14T19:04:25.716Z,10.93
2023-05-14T19:14:28.155Z,10.69
2023-05-14T19:24:31.109Z,10.50
2023-05-14T19:34:33.422Z,10.38
2023-05-14T19:44:35.799Z,10.22
2023-05-14T19:54:38.123Z,10.00
2023-05-14T20:04:41.088Z,9.80
2023-05-14T20:14:43.785Z,9.68
2023-05-14T20:24:46.165Z,9.63
2023-05-14T20:40:12.876Z,9.67
2023-05-14T20:50:15.225Z,9.71
2023-05-14T21:00:17.949Z,9.73
2023-05-14T21:10:20.295Z,9.68
2023-05-14T21:20:22.589Z,9.70
2023-05-14T21:30:24.998Z,9.71
2023-05-14T21:40:27.328Z,9.72
2023-05-14T21:50:29.605Z,9.74
2023-05-14T22:00:32.066Z,9.74
2023-05-14T22:10:35.374Z,9.77
2023-05-14T22:20:37.640Z,9.64
2023-05-14T22:30:39.887Z,9.59
2023-05-14T22:40:42.223Z,9.66
2023-05-14T22:50:44.590Z,9.72
2023-05-14T23:00:46.898Z,9.74
2023-05-14T23:10:49.172Z,9.74
2023-05-14T23:20:51.468Z,9.76
2023-05-14T23:30:53.844Z,9.79
2023-05-14T23:40:56.148Z,9.85
2023-05-14T23:50:58.497Z,9.86
